<?xml version="1.0" encoding="UTF-8" standalone="no" ?>
<gpx xmlns="http://www.topografix.com/GPX/1/1" xmlns:xsi="http://www.w3.org/2001/XMLSchema-instance" xsi:schemaLocation="http://www.topografix.com/GPX/1/1 http://www.topografix.com/GPX/1/1/gpx.xsd" version="1.1" creator="VisuGPX - https://www.visugpx.com">
  <metadata>
    <name>Offlanges - La Serre</name>
    <desc><![CDATA[Randonnée effectuée le 19 février 2018]]></desc>
  </metadata>
  <trk>
    <name><![CDATA[19 févr. 2018 à 09:07:55]]></name>
    <cmt><![CDATA[19 févr. 2018 à 09:07:55]]></cmt>
    <trkseg>
      <trkpt lat="47.20733" lon="5.54999">
        <ele>322</ele>
        <time>2018-02-19T08:07:55Z</time>
      </trkpt>
      <trkpt lat="47.20727" lon="5.54991">
        <ele>326</ele>
        <time>2018-02-19T08:09:53Z</time>
      </trkpt>
      <trkpt lat="47.20716" lon="5.54968">
        <ele>327</ele>
        <time>2018-02-19T08:10:24Z</time>
      </trkpt>
      <trkpt lat="47.20706" lon="5.54944">
        <ele>328</ele>
        <time>2018-02-19T08:10:41Z</time>
      </trkpt>
      <trkpt lat="47.20692" lon="5.54917">
        <ele>327</ele>
        <time>2018-02-19T08:11:01Z</time>
      </trkpt>
      <trkpt lat="47.2067" lon="5.54876">
        <ele>328</ele>
        <time>2018-02-19T08:11:28Z</time>
      </trkpt>
      <trkpt lat="47.20669" lon="5.54868">
        <ele>328</ele>
        <time>2018-02-19T08:11:33Z</time>
      </trkpt>
      <trkpt lat="47.20666" lon="5.54861">
        <ele>328</ele>
        <time>2018-02-19T08:11:37Z</time>
      </trkpt>
      <trkpt lat="47.20655" lon="5.54827">
        <ele>327</ele>
        <time>2018-02-19T08:11:59Z</time>
      </trkpt>
      <trkpt lat="47.20654" lon="5.54821">
        <ele>327</ele>
        <time>2018-02-19T08:12:03Z</time>
      </trkpt>
      <trkpt lat="47.20633" lon="5.54772">
        <ele>327</ele>
        <time>2018-02-19T08:12:34Z</time>
      </trkpt>
      <trkpt lat="47.20604" lon="5.54716">
        <ele>327</ele>
        <time>2018-02-19T08:13:08Z</time>
      </trkpt>
      <trkpt lat="47.206" lon="5.54709">
        <ele>327</ele>
        <time>2018-02-19T08:13:12Z</time>
      </trkpt>
      <trkpt lat="47.20593" lon="5.547">
        <ele>328</ele>
        <time>2018-02-19T08:13:19Z</time>
      </trkpt>
      <trkpt lat="47.20588" lon="5.54697">
        <ele>328</ele>
        <time>2018-02-19T08:13:23Z</time>
      </trkpt>
      <trkpt lat="47.20583" lon="5.54695">
        <ele>328</ele>
        <time>2018-02-19T08:13:27Z</time>
      </trkpt>
      <trkpt lat="47.20568" lon="5.54696">
        <ele>328</ele>
        <time>2018-02-19T08:13:39Z</time>
      </trkpt>
      <trkpt lat="47.20542" lon="5.54706">
        <ele>328</ele>
        <time>2018-02-19T08:13:59Z</time>
      </trkpt>
      <trkpt lat="47.20504" lon="5.54731">
        <ele>327</ele>
        <time>2018-02-19T08:14:31Z</time>
      </trkpt>
      <trkpt lat="47.20463" lon="5.54741">
        <ele>327</ele>
        <time>2018-02-19T08:15:05Z</time>
      </trkpt>
      <trkpt lat="47.20424" lon="5.5476">
        <ele>325</ele>
        <time>2018-02-19T08:15:37Z</time>
      </trkpt>
      <trkpt lat="47.20406" lon="5.54774">
        <ele>324</ele>
        <time>2018-02-19T08:15:53Z</time>
      </trkpt>
      <trkpt lat="47.20399" lon="5.54785">
        <ele>322</ele>
        <time>2018-02-19T08:16:01Z</time>
      </trkpt>
      <trkpt lat="47.20372" lon="5.54831">
        <ele>316</ele>
        <time>2018-02-19T08:16:32Z</time>
      </trkpt>
      <trkpt lat="47.2034" lon="5.54881">
        <ele>311</ele>
        <time>2018-02-19T08:17:05Z</time>
      </trkpt>
      <trkpt lat="47.20312" lon="5.54931">
        <ele>307</ele>
        <time>2018-02-19T08:17:37Z</time>
      </trkpt>
      <trkpt lat="47.20288" lon="5.54984">
        <ele>304</ele>
        <time>2018-02-19T08:18:07Z</time>
      </trkpt>
      <trkpt lat="47.20282" lon="5.54996">
        <ele>304</ele>
        <time>2018-02-19T08:18:15Z</time>
      </trkpt>
      <trkpt lat="47.20268" lon="5.55028">
        <ele>301</ele>
        <time>2018-02-19T08:18:37Z</time>
      </trkpt>
      <trkpt lat="47.20264" lon="5.5504">
        <ele>301</ele>
        <time>2018-02-19T08:18:45Z</time>
      </trkpt>
      <trkpt lat="47.20262" lon="5.55057">
        <ele>300</ele>
        <time>2018-02-19T08:18:53Z</time>
      </trkpt>
      <trkpt lat="47.20263" lon="5.55066">
        <ele>300</ele>
        <time>2018-02-19T08:18:57Z</time>
      </trkpt>
      <trkpt lat="47.20264" lon="5.55073">
        <ele>300</ele>
        <time>2018-02-19T08:19:01Z</time>
      </trkpt>
      <trkpt lat="47.20267" lon="5.55086">
        <ele>299</ele>
        <time>2018-02-19T08:19:09Z</time>
      </trkpt>
      <trkpt lat="47.20288" lon="5.55139">
        <ele>296</ele>
        <time>2018-02-19T08:19:42Z</time>
      </trkpt>
      <trkpt lat="47.20314" lon="5.55176">
        <ele>292</ele>
        <time>2018-02-19T08:20:10Z</time>
      </trkpt>
      <trkpt lat="47.20322" lon="5.55186">
        <ele>291</ele>
        <time>2018-02-19T08:20:18Z</time>
      </trkpt>
      <trkpt lat="47.20331" lon="5.55205">
        <ele>290</ele>
        <time>2018-02-19T08:20:31Z</time>
      </trkpt>
      <trkpt lat="47.20335" lon="5.5522">
        <ele>289</ele>
        <time>2018-02-19T08:20:39Z</time>
      </trkpt>
      <trkpt lat="47.20336" lon="5.55228">
        <ele>288</ele>
        <time>2018-02-19T08:20:44Z</time>
      </trkpt>
      <trkpt lat="47.20336" lon="5.55235">
        <ele>288</ele>
        <time>2018-02-19T08:20:48Z</time>
      </trkpt>
      <trkpt lat="47.20314" lon="5.55287">
        <ele>284</ele>
        <time>2018-02-19T08:21:22Z</time>
      </trkpt>
      <trkpt lat="47.20298" lon="5.55328">
        <ele>281</ele>
        <time>2018-02-19T08:21:46Z</time>
      </trkpt>
      <trkpt lat="47.20297" lon="5.55335">
        <ele>280</ele>
        <time>2018-02-19T08:21:54Z</time>
      </trkpt>
      <trkpt lat="47.20272" lon="5.55389">
        <ele>279</ele>
        <time>2018-02-19T08:22:27Z</time>
      </trkpt>
      <trkpt lat="47.20262" lon="5.55424">
        <ele>279</ele>
        <time>2018-02-19T08:22:48Z</time>
      </trkpt>
      <trkpt lat="47.20261" lon="5.55431">
        <ele>278</ele>
        <time>2018-02-19T08:22:52Z</time>
      </trkpt>
      <trkpt lat="47.20262" lon="5.55447">
        <ele>278</ele>
        <time>2018-02-19T08:23:00Z</time>
      </trkpt>
      <trkpt lat="47.20265" lon="5.55454">
        <ele>278</ele>
        <time>2018-02-19T08:23:04Z</time>
      </trkpt>
      <trkpt lat="47.2027" lon="5.55458">
        <ele>278</ele>
        <time>2018-02-19T08:23:08Z</time>
      </trkpt>
      <trkpt lat="47.20286" lon="5.55468">
        <ele>277</ele>
        <time>2018-02-19T08:23:20Z</time>
      </trkpt>
      <trkpt lat="47.20299" lon="5.55481">
        <ele>277</ele>
        <time>2018-02-19T08:23:32Z</time>
      </trkpt>
      <trkpt lat="47.20302" lon="5.55487">
        <ele>277</ele>
        <time>2018-02-19T08:23:36Z</time>
      </trkpt>
      <trkpt lat="47.20305" lon="5.55495">
        <ele>277</ele>
        <time>2018-02-19T08:23:40Z</time>
      </trkpt>
      <trkpt lat="47.20307" lon="5.55509">
        <ele>277</ele>
        <time>2018-02-19T08:23:49Z</time>
      </trkpt>
      <trkpt lat="47.20308" lon="5.55517">
        <ele>276</ele>
        <time>2018-02-19T08:23:53Z</time>
      </trkpt>
      <trkpt lat="47.20307" lon="5.55524">
        <ele>276</ele>
        <time>2018-02-19T08:23:57Z</time>
      </trkpt>
      <trkpt lat="47.20309" lon="5.55532">
        <ele>276</ele>
        <time>2018-02-19T08:24:02Z</time>
      </trkpt>
      <trkpt lat="47.2031" lon="5.55559">
        <ele>275</ele>
        <time>2018-02-19T08:24:16Z</time>
      </trkpt>
      <trkpt lat="47.20311" lon="5.55574">
        <ele>275</ele>
        <time>2018-02-19T08:24:23Z</time>
      </trkpt>
      <trkpt lat="47.20312" lon="5.55588">
        <ele>276</ele>
        <time>2018-02-19T08:24:31Z</time>
      </trkpt>
      <trkpt lat="47.20314" lon="5.55602">
        <ele>276</ele>
        <time>2018-02-19T08:24:38Z</time>
      </trkpt>
      <trkpt lat="47.20322" lon="5.55628">
        <ele>275</ele>
        <time>2018-02-19T08:24:53Z</time>
      </trkpt>
      <trkpt lat="47.20327" lon="5.5564">
        <ele>273</ele>
        <time>2018-02-19T08:25:00Z</time>
      </trkpt>
      <trkpt lat="47.20333" lon="5.5566">
        <ele>273</ele>
        <time>2018-02-19T08:25:11Z</time>
      </trkpt>
      <trkpt lat="47.20336" lon="5.55673">
        <ele>273</ele>
        <time>2018-02-19T08:25:19Z</time>
      </trkpt>
      <trkpt lat="47.20339" lon="5.55714">
        <ele>273</ele>
        <time>2018-02-19T08:25:44Z</time>
      </trkpt>
      <trkpt lat="47.20342" lon="5.55727">
        <ele>273</ele>
        <time>2018-02-19T08:25:53Z</time>
      </trkpt>
      <trkpt lat="47.20361" lon="5.55776">
        <ele>270</ele>
        <time>2018-02-19T08:26:24Z</time>
      </trkpt>
      <trkpt lat="47.20374" lon="5.55799">
        <ele>269</ele>
        <time>2018-02-19T08:26:41Z</time>
      </trkpt>
      <trkpt lat="47.20377" lon="5.55813">
        <ele>269</ele>
        <time>2018-02-19T08:26:48Z</time>
      </trkpt>
      <trkpt lat="47.20387" lon="5.55838">
        <ele>268</ele>
        <time>2018-02-19T08:27:04Z</time>
      </trkpt>
      <trkpt lat="47.20389" lon="5.55852">
        <ele>267</ele>
        <time>2018-02-19T08:27:11Z</time>
      </trkpt>
      <trkpt lat="47.20393" lon="5.55865">
        <ele>266</ele>
        <time>2018-02-19T08:27:19Z</time>
      </trkpt>
      <trkpt lat="47.20397" lon="5.55892">
        <ele>264</ele>
        <time>2018-02-19T08:27:35Z</time>
      </trkpt>
      <trkpt lat="47.20401" lon="5.55905">
        <ele>264</ele>
        <time>2018-02-19T08:27:43Z</time>
      </trkpt>
      <trkpt lat="47.20417" lon="5.55941">
        <ele>262</ele>
        <time>2018-02-19T08:28:08Z</time>
      </trkpt>
      <trkpt lat="47.20411" lon="5.55951">
        <ele>261</ele>
        <time>2018-02-19T08:28:18Z</time>
      </trkpt>
      <trkpt lat="47.20402" lon="5.5595">
        <ele>260</ele>
        <time>2018-02-19T08:28:25Z</time>
      </trkpt>
      <trkpt lat="47.20374" lon="5.55932">
        <ele>256</ele>
        <time>2018-02-19T08:28:50Z</time>
      </trkpt>
      <trkpt lat="47.20365" lon="5.55926">
        <ele>256</ele>
        <time>2018-02-19T08:28:58Z</time>
      </trkpt>
      <trkpt lat="47.20361" lon="5.55922">
        <ele>256</ele>
        <time>2018-02-19T08:29:02Z</time>
      </trkpt>
      <trkpt lat="47.20356" lon="5.55919">
        <ele>255</ele>
        <time>2018-02-19T08:29:07Z</time>
      </trkpt>
      <trkpt lat="47.20351" lon="5.55917">
        <ele>254</ele>
        <time>2018-02-19T08:29:11Z</time>
      </trkpt>
      <trkpt lat="47.20342" lon="5.55911">
        <ele>252</ele>
        <time>2018-02-19T08:29:21Z</time>
      </trkpt>
      <trkpt lat="47.20337" lon="5.55911">
        <ele>252</ele>
        <time>2018-02-19T08:29:26Z</time>
      </trkpt>
      <trkpt lat="47.20325" lon="5.55909">
        <ele>252</ele>
        <time>2018-02-19T08:29:35Z</time>
      </trkpt>
      <trkpt lat="47.2032" lon="5.55907">
        <ele>251</ele>
        <time>2018-02-19T08:29:40Z</time>
      </trkpt>
      <trkpt lat="47.2031" lon="5.55905">
        <ele>251</ele>
        <time>2018-02-19T08:29:49Z</time>
      </trkpt>
      <trkpt lat="47.20301" lon="5.55897">
        <ele>250</ele>
        <time>2018-02-19T08:30:00Z</time>
      </trkpt>
      <trkpt lat="47.20292" lon="5.55895">
        <ele>250</ele>
        <time>2018-02-19T08:30:08Z</time>
      </trkpt>
      <trkpt lat="47.20282" lon="5.55893">
        <ele>247</ele>
        <time>2018-02-19T08:30:16Z</time>
      </trkpt>
      <trkpt lat="47.20253" lon="5.55887">
        <ele>245</ele>
        <time>2018-02-19T08:30:40Z</time>
      </trkpt>
      <trkpt lat="47.20243" lon="5.55884">
        <ele>245</ele>
        <time>2018-02-19T08:30:47Z</time>
      </trkpt>
      <trkpt lat="47.20235" lon="5.55877">
        <ele>245</ele>
        <time>2018-02-19T08:30:54Z</time>
      </trkpt>
      <trkpt lat="47.20219" lon="5.55862">
        <ele>242</ele>
        <time>2018-02-19T08:31:10Z</time>
      </trkpt>
      <trkpt lat="47.20209" lon="5.55858">
        <ele>240</ele>
        <time>2018-02-19T08:31:18Z</time>
      </trkpt>
      <trkpt lat="47.20201" lon="5.55858">
        <ele>234</ele>
        <time>2018-02-19T08:31:53Z</time>
      </trkpt>
      <trkpt lat="47.20196" lon="5.55861">
        <ele>234</ele>
        <time>2018-02-19T08:31:57Z</time>
      </trkpt>
      <trkpt lat="47.20193" lon="5.55867">
        <ele>234</ele>
        <time>2018-02-19T08:32:02Z</time>
      </trkpt>
      <trkpt lat="47.2018" lon="5.55899">
        <ele>231</ele>
        <time>2018-02-19T08:32:22Z</time>
      </trkpt>
      <trkpt lat="47.20162" lon="5.55929">
        <ele>229</ele>
        <time>2018-02-19T08:32:47Z</time>
      </trkpt>
      <trkpt lat="47.20153" lon="5.55938">
        <ele>229</ele>
        <time>2018-02-19T08:32:57Z</time>
      </trkpt>
      <trkpt lat="47.2015" lon="5.55944">
        <ele>229</ele>
        <time>2018-02-19T08:33:01Z</time>
      </trkpt>
      <trkpt lat="47.20151" lon="5.55952">
        <ele>229</ele>
        <time>2018-02-19T08:33:08Z</time>
      </trkpt>
      <trkpt lat="47.20148" lon="5.55958">
        <ele>229</ele>
        <time>2018-02-19T08:33:13Z</time>
      </trkpt>
      <trkpt lat="47.20149" lon="5.55966">
        <ele>230</ele>
        <time>2018-02-19T08:33:21Z</time>
      </trkpt>
      <trkpt lat="47.20151" lon="5.55973">
        <ele>230</ele>
        <time>2018-02-19T08:33:27Z</time>
      </trkpt>
      <trkpt lat="47.20151" lon="5.55981">
        <ele>230</ele>
        <time>2018-02-19T08:33:31Z</time>
      </trkpt>
      <trkpt lat="47.2015" lon="5.56004">
        <ele>230</ele>
        <time>2018-02-19T08:33:43Z</time>
      </trkpt>
      <trkpt lat="47.20153" lon="5.5601">
        <ele>230</ele>
        <time>2018-02-19T08:33:50Z</time>
      </trkpt>
      <trkpt lat="47.20154" lon="5.56017">
        <ele>230</ele>
        <time>2018-02-19T08:33:58Z</time>
      </trkpt>
      <trkpt lat="47.2015" lon="5.56058">
        <ele>234</ele>
        <time>2018-02-19T08:34:32Z</time>
      </trkpt>
      <trkpt lat="47.20148" lon="5.56085">
        <ele>237</ele>
        <time>2018-02-19T08:34:58Z</time>
      </trkpt>
      <trkpt lat="47.20151" lon="5.56126">
        <ele>240</ele>
        <time>2018-02-19T08:35:36Z</time>
      </trkpt>
      <trkpt lat="47.20151" lon="5.5614">
        <ele>244</ele>
        <time>2018-02-19T08:35:47Z</time>
      </trkpt>
      <trkpt lat="47.20154" lon="5.56167">
        <ele>248</ele>
        <time>2018-02-19T08:36:10Z</time>
      </trkpt>
      <trkpt lat="47.20156" lon="5.56188">
        <ele>249</ele>
        <time>2018-02-19T08:36:27Z</time>
      </trkpt>
      <trkpt lat="47.20156" lon="5.56196">
        <ele>248</ele>
        <time>2018-02-19T08:36:34Z</time>
      </trkpt>
      <trkpt lat="47.20156" lon="5.56203">
        <ele>249</ele>
        <time>2018-02-19T08:36:38Z</time>
      </trkpt>
      <trkpt lat="47.20156" lon="5.5621">
        <ele>249</ele>
        <time>2018-02-19T08:36:44Z</time>
      </trkpt>
      <trkpt lat="47.20152" lon="5.56224">
        <ele>252</ele>
        <time>2018-02-19T08:36:52Z</time>
      </trkpt>
      <trkpt lat="47.20143" lon="5.56241">
        <ele>254</ele>
        <time>2018-02-19T08:37:06Z</time>
      </trkpt>
      <trkpt lat="47.20131" lon="5.56272">
        <ele>259</ele>
        <time>2018-02-19T08:37:38Z</time>
      </trkpt>
      <trkpt lat="47.20125" lon="5.56287">
        <ele>261</ele>
        <time>2018-02-19T08:37:54Z</time>
      </trkpt>
      <trkpt lat="47.20123" lon="5.56292">
        <ele>262</ele>
        <time>2018-02-19T08:37:59Z</time>
      </trkpt>
      <trkpt lat="47.20114" lon="5.56301">
        <ele>265</ele>
        <time>2018-02-19T08:38:14Z</time>
      </trkpt>
      <trkpt lat="47.20105" lon="5.56306">
        <ele>266</ele>
        <time>2018-02-19T08:38:25Z</time>
      </trkpt>
      <trkpt lat="47.20101" lon="5.56309">
        <ele>266</ele>
        <time>2018-02-19T08:38:30Z</time>
      </trkpt>
      <trkpt lat="47.20069" lon="5.56332">
        <ele>271</ele>
        <time>2018-02-19T08:39:04Z</time>
      </trkpt>
      <trkpt lat="47.2005" lon="5.56345">
        <ele>273</ele>
        <time>2018-02-19T08:39:22Z</time>
      </trkpt>
      <trkpt lat="47.20041" lon="5.56351">
        <ele>273</ele>
        <time>2018-02-19T08:39:32Z</time>
      </trkpt>
      <trkpt lat="47.20036" lon="5.56354">
        <ele>274</ele>
        <time>2018-02-19T08:39:37Z</time>
      </trkpt>
      <trkpt lat="47.20021" lon="5.56354">
        <ele>275</ele>
        <time>2018-02-19T08:39:53Z</time>
      </trkpt>
      <trkpt lat="47.20011" lon="5.56359">
        <ele>276</ele>
        <time>2018-02-19T08:40:03Z</time>
      </trkpt>
      <trkpt lat="47.20007" lon="5.56363">
        <ele>276</ele>
        <time>2018-02-19T08:40:09Z</time>
      </trkpt>
      <trkpt lat="47.20002" lon="5.56364">
        <ele>276</ele>
        <time>2018-02-19T08:40:14Z</time>
      </trkpt>
      <trkpt lat="47.19994" lon="5.5637">
        <ele>277</ele>
        <time>2018-02-19T08:40:23Z</time>
      </trkpt>
      <trkpt lat="47.1999" lon="5.56375">
        <ele>278</ele>
        <time>2018-02-19T08:40:28Z</time>
      </trkpt>
      <trkpt lat="47.19981" lon="5.56383">
        <ele>280</ele>
        <time>2018-02-19T08:40:41Z</time>
      </trkpt>
      <trkpt lat="47.19976" lon="5.56385">
        <ele>280</ele>
        <time>2018-02-19T08:40:45Z</time>
      </trkpt>
      <trkpt lat="47.19972" lon="5.56388">
        <ele>282</ele>
        <time>2018-02-19T08:40:51Z</time>
      </trkpt>
      <trkpt lat="47.19963" lon="5.56391">
        <ele>283</ele>
        <time>2018-02-19T08:41:03Z</time>
      </trkpt>
      <trkpt lat="47.19958" lon="5.56396">
        <ele>284</ele>
        <time>2018-02-19T08:41:19Z</time>
      </trkpt>
      <trkpt lat="47.19954" lon="5.56399">
        <ele>287</ele>
        <time>2018-02-19T08:41:32Z</time>
      </trkpt>
      <trkpt lat="47.19946" lon="5.56406">
        <ele>292</ele>
        <time>2018-02-19T08:41:56Z</time>
      </trkpt>
      <trkpt lat="47.19943" lon="5.56412">
        <ele>294</ele>
        <time>2018-02-19T08:42:02Z</time>
      </trkpt>
      <trkpt lat="47.19936" lon="5.56416">
        <ele>297</ele>
        <time>2018-02-19T08:42:24Z</time>
      </trkpt>
      <trkpt lat="47.19926" lon="5.56424">
        <ele>291</ele>
        <time>2018-02-19T08:43:16Z</time>
      </trkpt>
      <trkpt lat="47.19923" lon="5.56429">
        <ele>286</ele>
        <time>2018-02-19T08:43:23Z</time>
      </trkpt>
      <trkpt lat="47.19917" lon="5.56435">
        <ele>287</ele>
        <time>2018-02-19T08:43:36Z</time>
      </trkpt>
      <trkpt lat="47.19912" lon="5.56437">
        <ele>287</ele>
        <time>2018-02-19T08:43:44Z</time>
      </trkpt>
      <trkpt lat="47.19908" lon="5.56439">
        <ele>289</ele>
        <time>2018-02-19T08:43:50Z</time>
      </trkpt>
      <trkpt lat="47.19899" lon="5.56444">
        <ele>289</ele>
        <time>2018-02-19T08:45:32Z</time>
      </trkpt>
      <trkpt lat="47.19895" lon="5.56446">
        <ele>288</ele>
        <time>2018-02-19T08:45:37Z</time>
      </trkpt>
      <trkpt lat="47.1989" lon="5.56446">
        <ele>288</ele>
        <time>2018-02-19T08:45:42Z</time>
      </trkpt>
      <trkpt lat="47.19885" lon="5.56447">
        <ele>288</ele>
        <time>2018-02-19T08:45:46Z</time>
      </trkpt>
      <trkpt lat="47.19881" lon="5.56451">
        <ele>290</ele>
        <time>2018-02-19T08:45:52Z</time>
      </trkpt>
      <trkpt lat="47.19877" lon="5.56454">
        <ele>291</ele>
        <time>2018-02-19T08:45:59Z</time>
      </trkpt>
      <trkpt lat="47.19872" lon="5.56457">
        <ele>293</ele>
        <time>2018-02-19T08:46:09Z</time>
      </trkpt>
      <trkpt lat="47.19846" lon="5.56479">
        <ele>297</ele>
        <time>2018-02-19T08:46:42Z</time>
      </trkpt>
      <trkpt lat="47.19842" lon="5.56481">
        <ele>298</ele>
        <time>2018-02-19T08:46:48Z</time>
      </trkpt>
      <trkpt lat="47.19838" lon="5.56486">
        <ele>299</ele>
        <time>2018-02-19T08:46:55Z</time>
      </trkpt>
      <trkpt lat="47.19833" lon="5.56488">
        <ele>300</ele>
        <time>2018-02-19T08:47:03Z</time>
      </trkpt>
      <trkpt lat="47.1983" lon="5.56493">
        <ele>301</ele>
        <time>2018-02-19T08:47:11Z</time>
      </trkpt>
      <trkpt lat="47.19802" lon="5.56505">
        <ele>307</ele>
        <time>2018-02-19T08:47:47Z</time>
      </trkpt>
      <trkpt lat="47.19785" lon="5.56518">
        <ele>314</ele>
        <time>2018-02-19T08:48:18Z</time>
      </trkpt>
      <trkpt lat="47.19775" lon="5.56528">
        <ele>319</ele>
        <time>2018-02-19T08:49:39Z</time>
      </trkpt>
      <trkpt lat="47.19783" lon="5.5654">
        <ele>322</ele>
        <time>2018-02-19T08:52:56Z</time>
      </trkpt>
      <trkpt lat="47.19783" lon="5.56548">
        <ele>322</ele>
        <time>2018-02-19T08:52:59Z</time>
      </trkpt>
      <trkpt lat="47.19784" lon="5.56555">
        <ele>323</ele>
        <time>2018-02-19T08:53:04Z</time>
      </trkpt>
      <trkpt lat="47.19787" lon="5.56569">
        <ele>324</ele>
        <time>2018-02-19T08:53:14Z</time>
      </trkpt>
      <trkpt lat="47.1979" lon="5.56576">
        <ele>324</ele>
        <time>2018-02-19T08:53:19Z</time>
      </trkpt>
      <trkpt lat="47.19792" lon="5.56591">
        <ele>324</ele>
        <time>2018-02-19T08:53:27Z</time>
      </trkpt>
      <trkpt lat="47.19803" lon="5.56604">
        <ele>324</ele>
        <time>2018-02-19T08:53:40Z</time>
      </trkpt>
      <trkpt lat="47.19805" lon="5.56611">
        <ele>324</ele>
        <time>2018-02-19T08:53:43Z</time>
      </trkpt>
      <trkpt lat="47.19806" lon="5.56618">
        <ele>324</ele>
        <time>2018-02-19T08:53:46Z</time>
      </trkpt>
      <trkpt lat="47.19812" lon="5.56629">
        <ele>325</ele>
        <time>2018-02-19T08:53:58Z</time>
      </trkpt>
      <trkpt lat="47.19813" lon="5.56636">
        <ele>325</ele>
        <time>2018-02-19T08:54:04Z</time>
      </trkpt>
      <trkpt lat="47.19813" lon="5.56643">
        <ele>325</ele>
        <time>2018-02-19T08:54:08Z</time>
      </trkpt>
      <trkpt lat="47.19814" lon="5.5665">
        <ele>325</ele>
        <time>2018-02-19T08:54:12Z</time>
      </trkpt>
      <trkpt lat="47.19813" lon="5.56658">
        <ele>325</ele>
        <time>2018-02-19T08:54:15Z</time>
      </trkpt>
      <trkpt lat="47.19815" lon="5.56666">
        <ele>325</ele>
        <time>2018-02-19T08:54:19Z</time>
      </trkpt>
      <trkpt lat="47.19817" lon="5.56672">
        <ele>324</ele>
        <time>2018-02-19T08:54:23Z</time>
      </trkpt>
      <trkpt lat="47.19824" lon="5.56684">
        <ele>325</ele>
        <time>2018-02-19T08:54:33Z</time>
      </trkpt>
      <trkpt lat="47.19828" lon="5.56696">
        <ele>324</ele>
        <time>2018-02-19T08:54:44Z</time>
      </trkpt>
      <trkpt lat="47.19832" lon="5.567">
        <ele>324</ele>
        <time>2018-02-19T08:54:48Z</time>
      </trkpt>
      <trkpt lat="47.19835" lon="5.56707">
        <ele>324</ele>
        <time>2018-02-19T08:54:53Z</time>
      </trkpt>
      <trkpt lat="47.19837" lon="5.56713">
        <ele>325</ele>
        <time>2018-02-19T08:54:58Z</time>
      </trkpt>
      <trkpt lat="47.19835" lon="5.56726">
        <ele>325</ele>
        <time>2018-02-19T08:55:02Z</time>
      </trkpt>
      <trkpt lat="47.19837" lon="5.56732">
        <ele>325</ele>
        <time>2018-02-19T08:55:09Z</time>
      </trkpt>
      <trkpt lat="47.19839" lon="5.56739">
        <ele>324</ele>
        <time>2018-02-19T08:55:16Z</time>
      </trkpt>
      <trkpt lat="47.19842" lon="5.56745">
        <ele>324</ele>
        <time>2018-02-19T08:55:21Z</time>
      </trkpt>
      <trkpt lat="47.19841" lon="5.56751">
        <ele>324</ele>
        <time>2018-02-19T08:55:29Z</time>
      </trkpt>
      <trkpt lat="47.19851" lon="5.56769">
        <ele>324</ele>
        <time>2018-02-19T08:56:04Z</time>
      </trkpt>
      <trkpt lat="47.19853" lon="5.56783">
        <ele>321</ele>
        <time>2018-02-19T08:56:12Z</time>
      </trkpt>
      <trkpt lat="47.19853" lon="5.56796">
        <ele>321</ele>
        <time>2018-02-19T08:56:19Z</time>
      </trkpt>
      <trkpt lat="47.19857" lon="5.56802">
        <ele>321</ele>
        <time>2018-02-19T08:56:26Z</time>
      </trkpt>
      <trkpt lat="47.19861" lon="5.56807">
        <ele>321</ele>
        <time>2018-02-19T08:56:32Z</time>
      </trkpt>
      <trkpt lat="47.19865" lon="5.56808">
        <ele>321</ele>
        <time>2018-02-19T08:56:39Z</time>
      </trkpt>
      <trkpt lat="47.19869" lon="5.56811">
        <ele>321</ele>
        <time>2018-02-19T08:56:44Z</time>
      </trkpt>
      <trkpt lat="47.19871" lon="5.56818">
        <ele>320</ele>
        <time>2018-02-19T08:56:47Z</time>
      </trkpt>
      <trkpt lat="47.19874" lon="5.56833">
        <ele>320</ele>
        <time>2018-02-19T08:56:55Z</time>
      </trkpt>
      <trkpt lat="47.19877" lon="5.56839">
        <ele>321</ele>
        <time>2018-02-19T08:57:00Z</time>
      </trkpt>
      <trkpt lat="47.19881" lon="5.56842">
        <ele>320</ele>
        <time>2018-02-19T08:57:06Z</time>
      </trkpt>
      <trkpt lat="47.19883" lon="5.56849">
        <ele>320</ele>
        <time>2018-02-19T08:57:13Z</time>
      </trkpt>
      <trkpt lat="47.19887" lon="5.56853">
        <ele>320</ele>
        <time>2018-02-19T08:57:18Z</time>
      </trkpt>
      <trkpt lat="47.19887" lon="5.56861">
        <ele>321</ele>
        <time>2018-02-19T08:57:21Z</time>
      </trkpt>
      <trkpt lat="47.19889" lon="5.56868">
        <ele>321</ele>
        <time>2018-02-19T08:57:25Z</time>
      </trkpt>
      <trkpt lat="47.19892" lon="5.5688">
        <ele>319</ele>
        <time>2018-02-19T08:57:33Z</time>
      </trkpt>
      <trkpt lat="47.19895" lon="5.56902">
        <ele>319</ele>
        <time>2018-02-19T08:57:43Z</time>
      </trkpt>
      <trkpt lat="47.19899" lon="5.56931">
        <ele>320</ele>
        <time>2018-02-19T08:58:00Z</time>
      </trkpt>
      <trkpt lat="47.19902" lon="5.56936">
        <ele>321</ele>
        <time>2018-02-19T08:58:05Z</time>
      </trkpt>
      <trkpt lat="47.19909" lon="5.56941">
        <ele>321</ele>
        <time>2018-02-19T08:58:26Z</time>
      </trkpt>
      <trkpt lat="47.19908" lon="5.56948">
        <ele>321</ele>
        <time>2018-02-19T08:58:31Z</time>
      </trkpt>
      <trkpt lat="47.1991" lon="5.56955">
        <ele>321</ele>
        <time>2018-02-19T08:58:36Z</time>
      </trkpt>
      <trkpt lat="47.19913" lon="5.56968">
        <ele>321</ele>
        <time>2018-02-19T08:58:46Z</time>
      </trkpt>
      <trkpt lat="47.19917" lon="5.56975">
        <ele>322</ele>
        <time>2018-02-19T08:58:51Z</time>
      </trkpt>
      <trkpt lat="47.19918" lon="5.56989">
        <ele>323</ele>
        <time>2018-02-19T08:58:58Z</time>
      </trkpt>
      <trkpt lat="47.19924" lon="5.57001">
        <ele>323</ele>
        <time>2018-02-19T08:59:08Z</time>
      </trkpt>
      <trkpt lat="47.19928" lon="5.57013">
        <ele>323</ele>
        <time>2018-02-19T08:59:16Z</time>
      </trkpt>
      <trkpt lat="47.19933" lon="5.57024">
        <ele>323</ele>
        <time>2018-02-19T08:59:25Z</time>
      </trkpt>
      <trkpt lat="47.19937" lon="5.57037">
        <ele>321</ele>
        <time>2018-02-19T08:59:34Z</time>
      </trkpt>
      <trkpt lat="47.19943" lon="5.57045">
        <ele>320</ele>
        <time>2018-02-19T09:00:02Z</time>
      </trkpt>
      <trkpt lat="47.19938" lon="5.57062">
        <ele>319</ele>
        <time>2018-02-19T09:00:26Z</time>
      </trkpt>
      <trkpt lat="47.19941" lon="5.57069">
        <ele>320</ele>
        <time>2018-02-19T09:00:31Z</time>
      </trkpt>
      <trkpt lat="47.19944" lon="5.57074">
        <ele>321</ele>
        <time>2018-02-19T09:00:35Z</time>
      </trkpt>
      <trkpt lat="47.19951" lon="5.57094">
        <ele>321</ele>
        <time>2018-02-19T09:00:50Z</time>
      </trkpt>
      <trkpt lat="47.19954" lon="5.57099">
        <ele>321</ele>
        <time>2018-02-19T09:00:57Z</time>
      </trkpt>
      <trkpt lat="47.19954" lon="5.57107">
        <ele>320</ele>
        <time>2018-02-19T09:01:27Z</time>
      </trkpt>
      <trkpt lat="47.19957" lon="5.57114">
        <ele>319</ele>
        <time>2018-02-19T09:01:42Z</time>
      </trkpt>
      <trkpt lat="47.1996" lon="5.5712">
        <ele>319</ele>
        <time>2018-02-19T09:01:51Z</time>
      </trkpt>
      <trkpt lat="47.19961" lon="5.57128">
        <ele>320</ele>
        <time>2018-02-19T09:02:21Z</time>
      </trkpt>
      <trkpt lat="47.19966" lon="5.5713">
        <ele>319</ele>
        <time>2018-02-19T09:02:45Z</time>
      </trkpt>
      <trkpt lat="47.1997" lon="5.57134">
        <ele>318</ele>
        <time>2018-02-19T09:03:03Z</time>
      </trkpt>
      <trkpt lat="47.19973" lon="5.57142">
        <ele>314</ele>
        <time>2018-02-19T09:03:33Z</time>
      </trkpt>
      <trkpt lat="47.19973" lon="5.5715">
        <ele>313</ele>
        <time>2018-02-19T09:03:51Z</time>
      </trkpt>
      <trkpt lat="47.19969" lon="5.57156">
        <ele>310</ele>
        <time>2018-02-19T09:04:04Z</time>
      </trkpt>
      <trkpt lat="47.19974" lon="5.57169">
        <ele>307</ele>
        <time>2018-02-19T09:04:17Z</time>
      </trkpt>
      <trkpt lat="47.19981" lon="5.57178">
        <ele>306</ele>
        <time>2018-02-19T09:04:31Z</time>
      </trkpt>
      <trkpt lat="47.19983" lon="5.57191">
        <ele>305</ele>
        <time>2018-02-19T09:04:39Z</time>
      </trkpt>
      <trkpt lat="47.19991" lon="5.57212">
        <ele>304</ele>
        <time>2018-02-19T09:04:59Z</time>
      </trkpt>
      <trkpt lat="47.19991" lon="5.57219">
        <ele>302</ele>
        <time>2018-02-19T09:05:04Z</time>
      </trkpt>
      <trkpt lat="47.19992" lon="5.57226">
        <ele>302</ele>
        <time>2018-02-19T09:05:11Z</time>
      </trkpt>
      <trkpt lat="47.19988" lon="5.57231">
        <ele>303</ele>
        <time>2018-02-19T09:07:10Z</time>
      </trkpt>
      <trkpt lat="47.20024" lon="5.57222">
        <ele>307</ele>
        <time>2018-02-19T09:13:43Z</time>
      </trkpt>
      <trkpt lat="47.20033" lon="5.57224">
        <ele>306</ele>
        <time>2018-02-19T09:13:51Z</time>
      </trkpt>
      <trkpt lat="47.2004" lon="5.57233">
        <ele>304</ele>
        <time>2018-02-19T09:14:07Z</time>
      </trkpt>
      <trkpt lat="47.20036" lon="5.57246">
        <ele>300</ele>
        <time>2018-02-19T09:15:12Z</time>
      </trkpt>
      <trkpt lat="47.20033" lon="5.57252">
        <ele>299</ele>
        <time>2018-02-19T09:15:21Z</time>
      </trkpt>
      <trkpt lat="47.20026" lon="5.57262">
        <ele>299</ele>
        <time>2018-02-19T09:15:51Z</time>
      </trkpt>
      <trkpt lat="47.20023" lon="5.57266">
        <ele>300</ele>
        <time>2018-02-19T09:16:01Z</time>
      </trkpt>
      <trkpt lat="47.20019" lon="5.57272">
        <ele>301</ele>
        <time>2018-02-19T09:16:17Z</time>
      </trkpt>
      <trkpt lat="47.20023" lon="5.5729">
        <ele>303</ele>
        <time>2018-02-19T09:16:36Z</time>
      </trkpt>
      <trkpt lat="47.20029" lon="5.57293">
        <ele>305</ele>
        <time>2018-02-19T09:17:00Z</time>
      </trkpt>
      <trkpt lat="47.20026" lon="5.5731">
        <ele>310</ele>
        <time>2018-02-19T09:17:32Z</time>
      </trkpt>
      <trkpt lat="47.20023" lon="5.57319">
        <ele>312</ele>
        <time>2018-02-19T09:17:46Z</time>
      </trkpt>
      <trkpt lat="47.2002" lon="5.5733">
        <ele>315</ele>
        <time>2018-02-19T09:18:05Z</time>
      </trkpt>
      <trkpt lat="47.20027" lon="5.57341">
        <ele>314</ele>
        <time>2018-02-19T09:18:15Z</time>
      </trkpt>
      <trkpt lat="47.2003" lon="5.57356">
        <ele>315</ele>
        <time>2018-02-19T09:18:23Z</time>
      </trkpt>
      <trkpt lat="47.20033" lon="5.57362">
        <ele>315</ele>
        <time>2018-02-19T09:18:28Z</time>
      </trkpt>
      <trkpt lat="47.20035" lon="5.5737">
        <ele>316</ele>
        <time>2018-02-19T09:18:43Z</time>
      </trkpt>
      <trkpt lat="47.2003" lon="5.57377">
        <ele>317</ele>
        <time>2018-02-19T09:18:56Z</time>
      </trkpt>
      <trkpt lat="47.20029" lon="5.57384">
        <ele>318</ele>
        <time>2018-02-19T09:19:13Z</time>
      </trkpt>
      <trkpt lat="47.2004" lon="5.57393">
        <ele>322</ele>
        <time>2018-02-19T09:19:54Z</time>
      </trkpt>
      <trkpt lat="47.20048" lon="5.57404">
        <ele>321</ele>
        <time>2018-02-19T09:20:16Z</time>
      </trkpt>
      <trkpt lat="47.2005" lon="5.57433">
        <ele>321</ele>
        <time>2018-02-19T09:20:35Z</time>
      </trkpt>
      <trkpt lat="47.20054" lon="5.57447">
        <ele>321</ele>
        <time>2018-02-19T09:20:46Z</time>
      </trkpt>
      <trkpt lat="47.20057" lon="5.5746">
        <ele>320</ele>
        <time>2018-02-19T09:20:58Z</time>
      </trkpt>
      <trkpt lat="47.2006" lon="5.57472">
        <ele>318</ele>
        <time>2018-02-19T09:21:11Z</time>
      </trkpt>
      <trkpt lat="47.20065" lon="5.57483">
        <ele>316</ele>
        <time>2018-02-19T09:21:23Z</time>
      </trkpt>
      <trkpt lat="47.20071" lon="5.57494">
        <ele>315</ele>
        <time>2018-02-19T09:21:54Z</time>
      </trkpt>
      <trkpt lat="47.20074" lon="5.57508">
        <ele>315</ele>
        <time>2018-02-19T09:22:13Z</time>
      </trkpt>
      <trkpt lat="47.20077" lon="5.57522">
        <ele>316</ele>
        <time>2018-02-19T09:22:22Z</time>
      </trkpt>
      <trkpt lat="47.20081" lon="5.57534">
        <ele>317</ele>
        <time>2018-02-19T09:22:31Z</time>
      </trkpt>
      <trkpt lat="47.20087" lon="5.57545">
        <ele>316</ele>
        <time>2018-02-19T09:22:39Z</time>
      </trkpt>
      <trkpt lat="47.20096" lon="5.5757">
        <ele>316</ele>
        <time>2018-02-19T09:22:57Z</time>
      </trkpt>
      <trkpt lat="47.20103" lon="5.57613">
        <ele>319</ele>
        <time>2018-02-19T09:23:21Z</time>
      </trkpt>
      <trkpt lat="47.20114" lon="5.57635">
        <ele>320</ele>
        <time>2018-02-19T09:23:38Z</time>
      </trkpt>
      <trkpt lat="47.20117" lon="5.57648">
        <ele>320</ele>
        <time>2018-02-19T09:23:45Z</time>
      </trkpt>
      <trkpt lat="47.20121" lon="5.5766">
        <ele>321</ele>
        <time>2018-02-19T09:23:53Z</time>
      </trkpt>
      <trkpt lat="47.20133" lon="5.57681">
        <ele>322</ele>
        <time>2018-02-19T09:24:09Z</time>
      </trkpt>
      <trkpt lat="47.20137" lon="5.57694">
        <ele>321</ele>
        <time>2018-02-19T09:24:20Z</time>
      </trkpt>
      <trkpt lat="47.20142" lon="5.57735">
        <ele>319</ele>
        <time>2018-02-19T09:24:45Z</time>
      </trkpt>
      <trkpt lat="47.20155" lon="5.57771">
        <ele>317</ele>
        <time>2018-02-19T09:25:12Z</time>
      </trkpt>
      <trkpt lat="47.20162" lon="5.57782">
        <ele>317</ele>
        <time>2018-02-19T09:25:42Z</time>
      </trkpt>
      <trkpt lat="47.20166" lon="5.57794">
        <ele>315</ele>
        <time>2018-02-19T09:26:46Z</time>
      </trkpt>
      <trkpt lat="47.20175" lon="5.578">
        <ele>313</ele>
        <time>2018-02-19T09:27:01Z</time>
      </trkpt>
      <trkpt lat="47.20175" lon="5.57809">
        <ele>313</ele>
        <time>2018-02-19T09:27:14Z</time>
      </trkpt>
      <trkpt lat="47.20172" lon="5.57815">
        <ele>314</ele>
        <time>2018-02-19T09:27:23Z</time>
      </trkpt>
      <trkpt lat="47.20175" lon="5.57822">
        <ele>314</ele>
        <time>2018-02-19T09:27:28Z</time>
      </trkpt>
      <trkpt lat="47.20179" lon="5.57828">
        <ele>313</ele>
        <time>2018-02-19T09:27:31Z</time>
      </trkpt>
      <trkpt lat="47.20181" lon="5.57834">
        <ele>313</ele>
        <time>2018-02-19T09:27:35Z</time>
      </trkpt>
      <trkpt lat="47.20181" lon="5.57841">
        <ele>312</ele>
        <time>2018-02-19T09:27:42Z</time>
      </trkpt>
      <trkpt lat="47.20182" lon="5.57852">
        <ele>313</ele>
        <time>2018-02-19T09:27:59Z</time>
      </trkpt>
      <trkpt lat="47.20185" lon="5.57858">
        <ele>313</ele>
        <time>2018-02-19T09:28:04Z</time>
      </trkpt>
      <trkpt lat="47.20187" lon="5.57865">
        <ele>313</ele>
        <time>2018-02-19T09:28:09Z</time>
      </trkpt>
      <trkpt lat="47.20197" lon="5.57921">
        <ele>316</ele>
        <time>2018-02-19T09:28:46Z</time>
      </trkpt>
      <trkpt lat="47.20204" lon="5.5793">
        <ele>316</ele>
        <time>2018-02-19T09:28:53Z</time>
      </trkpt>
      <trkpt lat="47.20208" lon="5.57944">
        <ele>316</ele>
        <time>2018-02-19T09:29:01Z</time>
      </trkpt>
      <trkpt lat="47.20215" lon="5.57968">
        <ele>316</ele>
        <time>2018-02-19T09:29:17Z</time>
      </trkpt>
      <trkpt lat="47.20235" lon="5.58019">
        <ele>316</ele>
        <time>2018-02-19T09:30:01Z</time>
      </trkpt>
      <trkpt lat="47.20234" lon="5.58033">
        <ele>317</ele>
        <time>2018-02-19T09:30:31Z</time>
      </trkpt>
      <trkpt lat="47.20236" lon="5.5804">
        <ele>315</ele>
        <time>2018-02-19T09:31:07Z</time>
      </trkpt>
      <trkpt lat="47.20237" lon="5.58048">
        <ele>315</ele>
        <time>2018-02-19T09:31:13Z</time>
      </trkpt>
      <trkpt lat="47.20244" lon="5.5806">
        <ele>312</ele>
        <time>2018-02-19T09:31:25Z</time>
      </trkpt>
      <trkpt lat="47.20245" lon="5.58067">
        <ele>311</ele>
        <time>2018-02-19T09:31:30Z</time>
      </trkpt>
      <trkpt lat="47.20248" lon="5.58073">
        <ele>309</ele>
        <time>2018-02-19T09:31:36Z</time>
      </trkpt>
      <trkpt lat="47.20253" lon="5.58076">
        <ele>309</ele>
        <time>2018-02-19T09:31:39Z</time>
      </trkpt>
      <trkpt lat="47.20256" lon="5.58082">
        <ele>308</ele>
        <time>2018-02-19T09:31:45Z</time>
      </trkpt>
      <trkpt lat="47.20259" lon="5.58089">
        <ele>308</ele>
        <time>2018-02-19T09:31:50Z</time>
      </trkpt>
      <trkpt lat="47.20259" lon="5.58096">
        <ele>307</ele>
        <time>2018-02-19T09:31:57Z</time>
      </trkpt>
      <trkpt lat="47.20258" lon="5.58103">
        <ele>307</ele>
        <time>2018-02-19T09:32:03Z</time>
      </trkpt>
      <trkpt lat="47.20266" lon="5.58122">
        <ele>310</ele>
        <time>2018-02-19T09:32:20Z</time>
      </trkpt>
      <trkpt lat="47.20265" lon="5.58147">
        <ele>310</ele>
        <time>2018-02-19T09:32:50Z</time>
      </trkpt>
      <trkpt lat="47.20268" lon="5.58153">
        <ele>310</ele>
        <time>2018-02-19T09:32:57Z</time>
      </trkpt>
      <trkpt lat="47.20281" lon="5.58175">
        <ele>311</ele>
        <time>2018-02-19T09:33:18Z</time>
      </trkpt>
      <trkpt lat="47.20285" lon="5.58187">
        <ele>312</ele>
        <time>2018-02-19T09:33:30Z</time>
      </trkpt>
      <trkpt lat="47.20287" lon="5.58202">
        <ele>313</ele>
        <time>2018-02-19T09:34:01Z</time>
      </trkpt>
      <trkpt lat="47.20296" lon="5.58199">
        <ele>312</ele>
        <time>2018-02-19T09:34:12Z</time>
      </trkpt>
      <trkpt lat="47.20286" lon="5.58218">
        <ele>312</ele>
        <time>2018-02-19T09:35:15Z</time>
      </trkpt>
      <trkpt lat="47.20278" lon="5.58222">
        <ele>316</ele>
        <time>2018-02-19T09:35:23Z</time>
      </trkpt>
      <trkpt lat="47.20275" lon="5.58235">
        <ele>317</ele>
        <time>2018-02-19T09:35:34Z</time>
      </trkpt>
      <trkpt lat="47.20276" lon="5.58249">
        <ele>317</ele>
        <time>2018-02-19T09:35:53Z</time>
      </trkpt>
      <trkpt lat="47.20268" lon="5.58268">
        <ele>319</ele>
        <time>2018-02-19T09:36:28Z</time>
      </trkpt>
      <trkpt lat="47.2026" lon="5.58286">
        <ele>322</ele>
        <time>2018-02-19T09:36:55Z</time>
      </trkpt>
      <trkpt lat="47.20254" lon="5.58297">
        <ele>326</ele>
        <time>2018-02-19T09:37:30Z</time>
      </trkpt>
      <trkpt lat="47.20259" lon="5.58309">
        <ele>328</ele>
        <time>2018-02-19T09:38:04Z</time>
      </trkpt>
      <trkpt lat="47.20269" lon="5.58312">
        <ele>328</ele>
        <time>2018-02-19T09:38:13Z</time>
      </trkpt>
      <trkpt lat="47.20277" lon="5.58319">
        <ele>327</ele>
        <time>2018-02-19T09:38:26Z</time>
      </trkpt>
      <trkpt lat="47.20283" lon="5.5833">
        <ele>328</ele>
        <time>2018-02-19T09:38:38Z</time>
      </trkpt>
      <trkpt lat="47.20291" lon="5.58337">
        <ele>327</ele>
        <time>2018-02-19T09:38:49Z</time>
      </trkpt>
      <trkpt lat="47.20297" lon="5.58348">
        <ele>327</ele>
        <time>2018-02-19T09:39:02Z</time>
      </trkpt>
      <trkpt lat="47.20296" lon="5.58364">
        <ele>327</ele>
        <time>2018-02-19T09:39:13Z</time>
      </trkpt>
      <trkpt lat="47.20298" lon="5.5838">
        <ele>328</ele>
        <time>2018-02-19T09:39:25Z</time>
      </trkpt>
      <trkpt lat="47.20308" lon="5.58383">
        <ele>327</ele>
        <time>2018-02-19T09:39:30Z</time>
      </trkpt>
      <trkpt lat="47.20311" lon="5.58396">
        <ele>326</ele>
        <time>2018-02-19T09:39:40Z</time>
      </trkpt>
      <trkpt lat="47.20311" lon="5.5841">
        <ele>326</ele>
        <time>2018-02-19T09:39:53Z</time>
      </trkpt>
      <trkpt lat="47.20317" lon="5.5842">
        <ele>327</ele>
        <time>2018-02-19T09:40:04Z</time>
      </trkpt>
      <trkpt lat="47.20326" lon="5.58427">
        <ele>326</ele>
        <time>2018-02-19T09:40:13Z</time>
      </trkpt>
      <trkpt lat="47.20343" lon="5.5844">
        <ele>325</ele>
        <time>2018-02-19T09:40:30Z</time>
      </trkpt>
      <trkpt lat="47.20351" lon="5.58447">
        <ele>323</ele>
        <time>2018-02-19T09:40:39Z</time>
      </trkpt>
      <trkpt lat="47.20356" lon="5.58459">
        <ele>323</ele>
        <time>2018-02-19T09:40:47Z</time>
      </trkpt>
      <trkpt lat="47.20365" lon="5.58462">
        <ele>323</ele>
        <time>2018-02-19T09:41:02Z</time>
      </trkpt>
      <trkpt lat="47.20375" lon="5.58462">
        <ele>322</ele>
        <time>2018-02-19T09:41:10Z</time>
      </trkpt>
      <trkpt lat="47.20397" lon="5.58463">
        <ele>319</ele>
        <time>2018-02-19T09:41:51Z</time>
      </trkpt>
      <trkpt lat="47.20407" lon="5.58458">
        <ele>318</ele>
        <time>2018-02-19T09:42:00Z</time>
      </trkpt>
      <trkpt lat="47.20411" lon="5.58445">
        <ele>317</ele>
        <time>2018-02-19T09:42:16Z</time>
      </trkpt>
      <trkpt lat="47.2043" lon="5.58437">
        <ele>316</ele>
        <time>2018-02-19T09:42:29Z</time>
      </trkpt>
      <trkpt lat="47.20439" lon="5.58437">
        <ele>316</ele>
        <time>2018-02-19T09:42:35Z</time>
      </trkpt>
      <trkpt lat="47.20447" lon="5.5843">
        <ele>317</ele>
        <time>2018-02-19T09:42:43Z</time>
      </trkpt>
      <trkpt lat="47.20454" lon="5.5842">
        <ele>316</ele>
        <time>2018-02-19T09:42:51Z</time>
      </trkpt>
      <trkpt lat="47.20463" lon="5.58413">
        <ele>315</ele>
        <time>2018-02-19T09:43:02Z</time>
      </trkpt>
      <trkpt lat="47.20471" lon="5.58405">
        <ele>314</ele>
        <time>2018-02-19T09:43:10Z</time>
      </trkpt>
      <trkpt lat="47.20483" lon="5.58383">
        <ele>312</ele>
        <time>2018-02-19T09:43:31Z</time>
      </trkpt>
      <trkpt lat="47.20492" lon="5.58375">
        <ele>311</ele>
        <time>2018-02-19T09:43:40Z</time>
      </trkpt>
      <trkpt lat="47.20498" lon="5.58364">
        <ele>311</ele>
        <time>2018-02-19T09:43:54Z</time>
      </trkpt>
      <trkpt lat="47.20506" lon="5.58357">
        <ele>312</ele>
        <time>2018-02-19T09:44:05Z</time>
      </trkpt>
      <trkpt lat="47.20511" lon="5.58345">
        <ele>312</ele>
        <time>2018-02-19T09:44:17Z</time>
      </trkpt>
      <trkpt lat="47.20519" lon="5.58338">
        <ele>311</ele>
        <time>2018-02-19T09:44:26Z</time>
      </trkpt>
      <trkpt lat="47.20529" lon="5.58336">
        <ele>311</ele>
        <time>2018-02-19T09:44:32Z</time>
      </trkpt>
      <trkpt lat="47.2054" lon="5.58343">
        <ele>310</ele>
        <time>2018-02-19T09:45:14Z</time>
      </trkpt>
      <trkpt lat="47.20549" lon="5.5833">
        <ele>308</ele>
        <time>2018-02-19T09:46:45Z</time>
      </trkpt>
      <trkpt lat="47.20553" lon="5.58317">
        <ele>307</ele>
        <time>2018-02-19T09:46:54Z</time>
      </trkpt>
      <trkpt lat="47.20564" lon="5.58292">
        <ele>306</ele>
        <time>2018-02-19T09:47:10Z</time>
      </trkpt>
      <trkpt lat="47.20572" lon="5.58284">
        <ele>305</ele>
        <time>2018-02-19T09:47:18Z</time>
      </trkpt>
      <trkpt lat="47.20608" lon="5.58263">
        <ele>304</ele>
        <time>2018-02-19T09:47:50Z</time>
      </trkpt>
      <trkpt lat="47.20617" lon="5.58257">
        <ele>304</ele>
        <time>2018-02-19T09:47:57Z</time>
      </trkpt>
      <trkpt lat="47.20624" lon="5.58248">
        <ele>305</ele>
        <time>2018-02-19T09:48:07Z</time>
      </trkpt>
      <trkpt lat="47.20629" lon="5.58234">
        <ele>304</ele>
        <time>2018-02-19T09:48:26Z</time>
      </trkpt>
      <trkpt lat="47.20638" lon="5.58228">
        <ele>304</ele>
        <time>2018-02-19T09:48:32Z</time>
      </trkpt>
      <trkpt lat="47.20661" lon="5.5818">
        <ele>305</ele>
        <time>2018-02-19T09:49:06Z</time>
      </trkpt>
      <trkpt lat="47.20671" lon="5.58157">
        <ele>305</ele>
        <time>2018-02-19T09:49:22Z</time>
      </trkpt>
      <trkpt lat="47.20679" lon="5.5813">
        <ele>306</ele>
        <time>2018-02-19T09:49:44Z</time>
      </trkpt>
      <trkpt lat="47.20686" lon="5.58119">
        <ele>306</ele>
        <time>2018-02-19T09:49:53Z</time>
      </trkpt>
      <trkpt lat="47.20687" lon="5.58105">
        <ele>306</ele>
        <time>2018-02-19T09:50:01Z</time>
      </trkpt>
      <trkpt lat="47.20697" lon="5.58083">
        <ele>307</ele>
        <time>2018-02-19T09:50:20Z</time>
      </trkpt>
      <trkpt lat="47.20701" lon="5.58071">
        <ele>308</ele>
        <time>2018-02-19T09:50:30Z</time>
      </trkpt>
      <trkpt lat="47.20705" lon="5.58059">
        <ele>308</ele>
        <time>2018-02-19T09:50:39Z</time>
      </trkpt>
      <trkpt lat="47.20708" lon="5.58034">
        <ele>310</ele>
        <time>2018-02-19T09:50:56Z</time>
      </trkpt>
      <trkpt lat="47.20718" lon="5.5801">
        <ele>311</ele>
        <time>2018-02-19T09:51:12Z</time>
      </trkpt>
      <trkpt lat="47.20725" lon="5.58">
        <ele>312</ele>
        <time>2018-02-19T09:51:21Z</time>
      </trkpt>
      <trkpt lat="47.20727" lon="5.57987">
        <ele>313</ele>
        <time>2018-02-19T09:51:29Z</time>
      </trkpt>
      <trkpt lat="47.20734" lon="5.57978">
        <ele>314</ele>
        <time>2018-02-19T09:51:37Z</time>
      </trkpt>
      <trkpt lat="47.20739" lon="5.57966">
        <ele>314</ele>
        <time>2018-02-19T09:51:47Z</time>
      </trkpt>
      <trkpt lat="47.20759" lon="5.57937">
        <ele>314</ele>
        <time>2018-02-19T09:52:10Z</time>
      </trkpt>
      <trkpt lat="47.20763" lon="5.57923">
        <ele>314</ele>
        <time>2018-02-19T09:52:19Z</time>
      </trkpt>
      <trkpt lat="47.20779" lon="5.57905">
        <ele>313</ele>
        <time>2018-02-19T09:52:35Z</time>
      </trkpt>
      <trkpt lat="47.20799" lon="5.57878">
        <ele>313</ele>
        <time>2018-02-19T09:52:59Z</time>
      </trkpt>
      <trkpt lat="47.20799" lon="5.57871">
        <ele>312</ele>
        <time>2018-02-19T09:53:04Z</time>
      </trkpt>
      <trkpt lat="47.2079" lon="5.57854">
        <ele>310</ele>
        <time>2018-02-19T09:53:18Z</time>
      </trkpt>
      <trkpt lat="47.2079" lon="5.57847">
        <ele>310</ele>
        <time>2018-02-19T09:53:24Z</time>
      </trkpt>
      <trkpt lat="47.20802" lon="5.57816">
        <ele>310</ele>
        <time>2018-02-19T09:53:47Z</time>
      </trkpt>
      <trkpt lat="47.20804" lon="5.57809">
        <ele>310</ele>
        <time>2018-02-19T09:53:51Z</time>
      </trkpt>
      <trkpt lat="47.20802" lon="5.57795">
        <ele>308</ele>
        <time>2018-02-19T09:54:58Z</time>
      </trkpt>
      <trkpt lat="47.20805" lon="5.57789">
        <ele>307</ele>
        <time>2018-02-19T09:55:02Z</time>
      </trkpt>
      <trkpt lat="47.20805" lon="5.57775">
        <ele>305</ele>
        <time>2018-02-19T09:55:10Z</time>
      </trkpt>
      <trkpt lat="47.20812" lon="5.57759">
        <ele>304</ele>
        <time>2018-02-19T09:55:19Z</time>
      </trkpt>
      <trkpt lat="47.20814" lon="5.57752">
        <ele>303</ele>
        <time>2018-02-19T09:55:24Z</time>
      </trkpt>
      <trkpt lat="47.20814" lon="5.57745">
        <ele>303</ele>
        <time>2018-02-19T09:55:28Z</time>
      </trkpt>
      <trkpt lat="47.20812" lon="5.57737">
        <ele>303</ele>
        <time>2018-02-19T09:55:32Z</time>
      </trkpt>
      <trkpt lat="47.20811" lon="5.57723">
        <ele>302</ele>
        <time>2018-02-19T09:55:41Z</time>
      </trkpt>
      <trkpt lat="47.20803" lon="5.57695">
        <ele>299</ele>
        <time>2018-02-19T09:55:58Z</time>
      </trkpt>
      <trkpt lat="47.20797" lon="5.57684">
        <ele>298</ele>
        <time>2018-02-19T09:56:06Z</time>
      </trkpt>
      <trkpt lat="47.20789" lon="5.57676">
        <ele>298</ele>
        <time>2018-02-19T09:56:14Z</time>
      </trkpt>
      <trkpt lat="47.2078" lon="5.57669">
        <ele>296</ele>
        <time>2018-02-19T09:56:22Z</time>
      </trkpt>
      <trkpt lat="47.20776" lon="5.57658">
        <ele>295</ele>
        <time>2018-02-19T09:56:30Z</time>
      </trkpt>
      <trkpt lat="47.20774" lon="5.57616">
        <ele>293</ele>
        <time>2018-02-19T09:56:56Z</time>
      </trkpt>
      <trkpt lat="47.20775" lon="5.57602">
        <ele>293</ele>
        <time>2018-02-19T09:57:07Z</time>
      </trkpt>
      <trkpt lat="47.2078" lon="5.57589">
        <ele>292</ele>
        <time>2018-02-19T09:57:15Z</time>
      </trkpt>
      <trkpt lat="47.20778" lon="5.57576">
        <ele>292</ele>
        <time>2018-02-19T09:57:23Z</time>
      </trkpt>
      <trkpt lat="47.20781" lon="5.57562">
        <ele>289</ele>
        <time>2018-02-19T09:57:33Z</time>
      </trkpt>
      <trkpt lat="47.20777" lon="5.5752">
        <ele>287</ele>
        <time>2018-02-19T09:57:59Z</time>
      </trkpt>
      <trkpt lat="47.20774" lon="5.57507">
        <ele>286</ele>
        <time>2018-02-19T09:58:09Z</time>
      </trkpt>
      <trkpt lat="47.20773" lon="5.57494">
        <ele>286</ele>
        <time>2018-02-19T09:58:18Z</time>
      </trkpt>
      <trkpt lat="47.20779" lon="5.57483">
        <ele>284</ele>
        <time>2018-02-19T09:58:26Z</time>
      </trkpt>
      <trkpt lat="47.20769" lon="5.57457">
        <ele>281</ele>
        <time>2018-02-19T09:58:40Z</time>
      </trkpt>
      <trkpt lat="47.20765" lon="5.57429">
        <ele>277</ele>
        <time>2018-02-19T09:58:59Z</time>
      </trkpt>
      <trkpt lat="47.20761" lon="5.57416">
        <ele>276</ele>
        <time>2018-02-19T09:59:07Z</time>
      </trkpt>
      <trkpt lat="47.20768" lon="5.5739">
        <ele>274</ele>
        <time>2018-02-19T09:59:27Z</time>
      </trkpt>
      <trkpt lat="47.20769" lon="5.57377">
        <ele>272</ele>
        <time>2018-02-19T09:59:35Z</time>
      </trkpt>
      <trkpt lat="47.20784" lon="5.57361">
        <ele>271</ele>
        <time>2018-02-19T09:59:51Z</time>
      </trkpt>
      <trkpt lat="47.20796" lon="5.57338">
        <ele>269</ele>
        <time>2018-02-19T10:00:09Z</time>
      </trkpt>
      <trkpt lat="47.20795" lon="5.57323">
        <ele>268</ele>
        <time>2018-02-19T10:01:53Z</time>
      </trkpt>
      <trkpt lat="47.20806" lon="5.573">
        <ele>265</ele>
        <time>2018-02-19T10:02:11Z</time>
      </trkpt>
      <trkpt lat="47.20807" lon="5.57274">
        <ele>261</ele>
        <time>2018-02-19T10:02:27Z</time>
      </trkpt>
      <trkpt lat="47.20804" lon="5.5726">
        <ele>259</ele>
        <time>2018-02-19T10:02:36Z</time>
      </trkpt>
      <trkpt lat="47.20802" lon="5.57246">
        <ele>259</ele>
        <time>2018-02-19T10:02:46Z</time>
      </trkpt>
      <trkpt lat="47.2079" lon="5.57224">
        <ele>257</ele>
        <time>2018-02-19T10:03:05Z</time>
      </trkpt>
      <trkpt lat="47.20787" lon="5.5721">
        <ele>256</ele>
        <time>2018-02-19T10:03:13Z</time>
      </trkpt>
      <trkpt lat="47.20788" lon="5.57195">
        <ele>255</ele>
        <time>2018-02-19T10:03:23Z</time>
      </trkpt>
      <trkpt lat="47.20792" lon="5.57182">
        <ele>254</ele>
        <time>2018-02-19T10:03:32Z</time>
      </trkpt>
      <trkpt lat="47.20792" lon="5.57154">
        <ele>251</ele>
        <time>2018-02-19T10:03:47Z</time>
      </trkpt>
      <trkpt lat="47.20791" lon="5.5714">
        <ele>249</ele>
        <time>2018-02-19T10:03:53Z</time>
      </trkpt>
      <trkpt lat="47.2079" lon="5.57126">
        <ele>247</ele>
        <time>2018-02-19T10:04:03Z</time>
      </trkpt>
      <trkpt lat="47.20794" lon="5.57113">
        <ele>246</ele>
        <time>2018-02-19T10:04:11Z</time>
      </trkpt>
      <trkpt lat="47.20791" lon="5.57098">
        <ele>246</ele>
        <time>2018-02-19T10:04:19Z</time>
      </trkpt>
      <trkpt lat="47.20797" lon="5.57055">
        <ele>242</ele>
        <time>2018-02-19T10:04:42Z</time>
      </trkpt>
      <trkpt lat="47.20806" lon="5.57048">
        <ele>241</ele>
        <time>2018-02-19T10:04:47Z</time>
      </trkpt>
      <trkpt lat="47.20791" lon="5.57029">
        <ele>239</ele>
        <time>2018-02-19T10:05:02Z</time>
      </trkpt>
      <trkpt lat="47.20787" lon="5.57016">
        <ele>237</ele>
        <time>2018-02-19T10:05:11Z</time>
      </trkpt>
      <trkpt lat="47.20787" lon="5.57002">
        <ele>234</ele>
        <time>2018-02-19T10:05:19Z</time>
      </trkpt>
      <trkpt lat="47.20795" lon="5.56977">
        <ele>233</ele>
        <time>2018-02-19T10:05:32Z</time>
      </trkpt>
      <trkpt lat="47.20794" lon="5.56963">
        <ele>232</ele>
        <time>2018-02-19T10:05:39Z</time>
      </trkpt>
      <trkpt lat="47.20796" lon="5.5695">
        <ele>231</ele>
        <time>2018-02-19T10:05:47Z</time>
      </trkpt>
      <trkpt lat="47.20788" lon="5.5691">
        <ele>230</ele>
        <time>2018-02-19T10:06:13Z</time>
      </trkpt>
      <trkpt lat="47.20793" lon="5.56898">
        <ele>230</ele>
        <time>2018-02-19T10:06:21Z</time>
      </trkpt>
      <trkpt lat="47.20802" lon="5.56891">
        <ele>229</ele>
        <time>2018-02-19T10:06:27Z</time>
      </trkpt>
      <trkpt lat="47.20809" lon="5.56883">
        <ele>230</ele>
        <time>2018-02-19T10:06:34Z</time>
      </trkpt>
      <trkpt lat="47.20818" lon="5.56859">
        <ele>230</ele>
        <time>2018-02-19T10:06:50Z</time>
      </trkpt>
      <trkpt lat="47.20817" lon="5.56832">
        <ele>226</ele>
        <time>2018-02-19T10:07:18Z</time>
      </trkpt>
      <trkpt lat="47.20808" lon="5.56793">
        <ele>223</ele>
        <time>2018-02-19T10:07:51Z</time>
      </trkpt>
      <trkpt lat="47.20804" lon="5.56782">
        <ele>222</ele>
        <time>2018-02-19T10:08:01Z</time>
      </trkpt>
      <trkpt lat="47.20796" lon="5.56774">
        <ele>221</ele>
        <time>2018-02-19T10:08:13Z</time>
      </trkpt>
      <trkpt lat="47.2079" lon="5.56759">
        <ele>220</ele>
        <time>2018-02-19T10:08:28Z</time>
      </trkpt>
      <trkpt lat="47.20773" lon="5.56745">
        <ele>220</ele>
        <time>2018-02-19T10:08:41Z</time>
      </trkpt>
      <trkpt lat="47.20755" lon="5.56731">
        <ele>220</ele>
        <time>2018-02-19T10:08:57Z</time>
      </trkpt>
      <trkpt lat="47.20748" lon="5.56722">
        <ele>220</ele>
        <time>2018-02-19T10:09:05Z</time>
      </trkpt>
      <trkpt lat="47.20735" lon="5.56703">
        <ele>222</ele>
        <time>2018-02-19T10:09:19Z</time>
      </trkpt>
      <trkpt lat="47.20731" lon="5.56691">
        <ele>223</ele>
        <time>2018-02-19T10:09:28Z</time>
      </trkpt>
      <trkpt lat="47.20725" lon="5.56679">
        <ele>223</ele>
        <time>2018-02-19T10:09:36Z</time>
      </trkpt>
      <trkpt lat="47.20709" lon="5.56664">
        <ele>222</ele>
        <time>2018-02-19T10:09:49Z</time>
      </trkpt>
      <trkpt lat="47.20703" lon="5.56653">
        <ele>223</ele>
        <time>2018-02-19T10:10:03Z</time>
      </trkpt>
      <trkpt lat="47.20709" lon="5.56639">
        <ele>223</ele>
        <time>2018-02-19T10:10:28Z</time>
      </trkpt>
      <trkpt lat="47.2071" lon="5.56626">
        <ele>224</ele>
        <time>2018-02-19T10:10:35Z</time>
      </trkpt>
      <trkpt lat="47.20711" lon="5.56612">
        <ele>224</ele>
        <time>2018-02-19T10:10:43Z</time>
      </trkpt>
      <trkpt lat="47.20719" lon="5.56587">
        <ele>225</ele>
        <time>2018-02-19T10:10:56Z</time>
      </trkpt>
      <trkpt lat="47.20713" lon="5.56547">
        <ele>223</ele>
        <time>2018-02-19T10:11:22Z</time>
      </trkpt>
      <trkpt lat="47.20707" lon="5.56535">
        <ele>222</ele>
        <time>2018-02-19T10:11:31Z</time>
      </trkpt>
      <trkpt lat="47.20709" lon="5.56522">
        <ele>222</ele>
        <time>2018-02-19T10:11:39Z</time>
      </trkpt>
      <trkpt lat="47.20701" lon="5.56515">
        <ele>222</ele>
        <time>2018-02-19T10:11:45Z</time>
      </trkpt>
      <trkpt lat="47.20694" lon="5.56506">
        <ele>223</ele>
        <time>2018-02-19T10:11:52Z</time>
      </trkpt>
      <trkpt lat="47.20683" lon="5.56484">
        <ele>224</ele>
        <time>2018-02-19T10:12:07Z</time>
      </trkpt>
      <trkpt lat="47.20668" lon="5.56466">
        <ele>224</ele>
        <time>2018-02-19T10:12:23Z</time>
      </trkpt>
      <trkpt lat="47.20658" lon="5.56463">
        <ele>224</ele>
        <time>2018-02-19T10:12:30Z</time>
      </trkpt>
      <trkpt lat="47.20649" lon="5.56459">
        <ele>225</ele>
        <time>2018-02-19T10:12:36Z</time>
      </trkpt>
      <trkpt lat="47.20641" lon="5.5645">
        <ele>225</ele>
        <time>2018-02-19T10:12:43Z</time>
      </trkpt>
      <trkpt lat="47.20636" lon="5.56438">
        <ele>225</ele>
        <time>2018-02-19T10:12:50Z</time>
      </trkpt>
      <trkpt lat="47.20629" lon="5.56413">
        <ele>225</ele>
        <time>2018-02-19T10:13:06Z</time>
      </trkpt>
      <trkpt lat="47.20627" lon="5.56397">
        <ele>224</ele>
        <time>2018-02-19T10:13:16Z</time>
      </trkpt>
      <trkpt lat="47.20625" lon="5.56374">
        <ele>226</ele>
        <time>2018-02-19T10:13:29Z</time>
      </trkpt>
      <trkpt lat="47.20625" lon="5.56367">
        <ele>226</ele>
        <time>2018-02-19T10:13:34Z</time>
      </trkpt>
      <trkpt lat="47.20625" lon="5.56353">
        <ele>227</ele>
        <time>2018-02-19T10:13:42Z</time>
      </trkpt>
      <trkpt lat="47.20625" lon="5.56306">
        <ele>228</ele>
        <time>2018-02-19T10:14:10Z</time>
      </trkpt>
      <trkpt lat="47.20625" lon="5.56299">
        <ele>228</ele>
        <time>2018-02-19T10:14:15Z</time>
      </trkpt>
      <trkpt lat="47.20625" lon="5.56278">
        <ele>229</ele>
        <time>2018-02-19T10:14:27Z</time>
      </trkpt>
      <trkpt lat="47.20621" lon="5.56277">
        <ele>231</ele>
        <time>2018-02-19T10:15:57Z</time>
      </trkpt>
      <trkpt lat="47.2062" lon="5.56269">
        <ele>231</ele>
        <time>2018-02-19T10:16:03Z</time>
      </trkpt>
      <trkpt lat="47.20619" lon="5.56261">
        <ele>232</ele>
        <time>2018-02-19T10:16:07Z</time>
      </trkpt>
      <trkpt lat="47.20619" lon="5.56247">
        <ele>233</ele>
        <time>2018-02-19T10:16:16Z</time>
      </trkpt>
      <trkpt lat="47.20618" lon="5.56239">
        <ele>232</ele>
        <time>2018-02-19T10:16:20Z</time>
      </trkpt>
      <trkpt lat="47.20616" lon="5.56232">
        <ele>233</ele>
        <time>2018-02-19T10:16:24Z</time>
      </trkpt>
      <trkpt lat="47.20619" lon="5.56217">
        <ele>232</ele>
        <time>2018-02-19T10:16:32Z</time>
      </trkpt>
      <trkpt lat="47.20622" lon="5.56211">
        <ele>231</ele>
        <time>2018-02-19T10:16:36Z</time>
      </trkpt>
      <trkpt lat="47.20625" lon="5.56205">
        <ele>231</ele>
        <time>2018-02-19T10:16:40Z</time>
      </trkpt>
      <trkpt lat="47.20648" lon="5.56174">
        <ele>234</ele>
        <time>2018-02-19T10:17:02Z</time>
      </trkpt>
      <trkpt lat="47.20653" lon="5.56161">
        <ele>236</ele>
        <time>2018-02-19T10:17:11Z</time>
      </trkpt>
      <trkpt lat="47.20656" lon="5.5614">
        <ele>237</ele>
        <time>2018-02-19T10:17:23Z</time>
      </trkpt>
      <trkpt lat="47.20655" lon="5.56125">
        <ele>237</ele>
        <time>2018-02-19T10:17:33Z</time>
      </trkpt>
      <trkpt lat="47.20656" lon="5.56118">
        <ele>237</ele>
        <time>2018-02-19T10:17:37Z</time>
      </trkpt>
      <trkpt lat="47.20658" lon="5.56111">
        <ele>237</ele>
        <time>2018-02-19T10:17:41Z</time>
      </trkpt>
      <trkpt lat="47.20661" lon="5.56097">
        <ele>238</ele>
        <time>2018-02-19T10:17:49Z</time>
      </trkpt>
      <trkpt lat="47.20659" lon="5.56083">
        <ele>239</ele>
        <time>2018-02-19T10:17:57Z</time>
      </trkpt>
      <trkpt lat="47.20662" lon="5.5607">
        <ele>240</ele>
        <time>2018-02-19T10:18:05Z</time>
      </trkpt>
      <trkpt lat="47.20661" lon="5.56055">
        <ele>242</ele>
        <time>2018-02-19T10:18:14Z</time>
      </trkpt>
      <trkpt lat="47.20669" lon="5.56044">
        <ele>243</ele>
        <time>2018-02-19T10:18:22Z</time>
      </trkpt>
      <trkpt lat="47.20672" lon="5.56037">
        <ele>244</ele>
        <time>2018-02-19T10:18:26Z</time>
      </trkpt>
      <trkpt lat="47.20687" lon="5.56008">
        <ele>246</ele>
        <time>2018-02-19T10:18:46Z</time>
      </trkpt>
      <trkpt lat="47.207" lon="5.55987">
        <ele>249</ele>
        <time>2018-02-19T10:19:02Z</time>
      </trkpt>
      <trkpt lat="47.20716" lon="5.55971">
        <ele>251</ele>
        <time>2018-02-19T10:19:20Z</time>
      </trkpt>
      <trkpt lat="47.20729" lon="5.55962">
        <ele>254</ele>
        <time>2018-02-19T10:19:33Z</time>
      </trkpt>
      <trkpt lat="47.20735" lon="5.5596">
        <ele>254</ele>
        <time>2018-02-19T10:19:38Z</time>
      </trkpt>
      <trkpt lat="47.20744" lon="5.55959">
        <ele>255</ele>
        <time>2018-02-19T10:19:46Z</time>
      </trkpt>
      <trkpt lat="47.20749" lon="5.55959">
        <ele>255</ele>
        <time>2018-02-19T10:19:52Z</time>
      </trkpt>
      <trkpt lat="47.20753" lon="5.55957">
        <ele>255</ele>
        <time>2018-02-19T10:19:57Z</time>
      </trkpt>
      <trkpt lat="47.20758" lon="5.55957">
        <ele>255</ele>
        <time>2018-02-19T10:20:00Z</time>
      </trkpt>
      <trkpt lat="47.20763" lon="5.55958">
        <ele>255</ele>
        <time>2018-02-19T10:20:04Z</time>
      </trkpt>
      <trkpt lat="47.20768" lon="5.55955">
        <ele>256</ele>
        <time>2018-02-19T10:20:09Z</time>
      </trkpt>
      <trkpt lat="47.2077" lon="5.55949">
        <ele>257</ele>
        <time>2018-02-19T10:20:13Z</time>
      </trkpt>
      <trkpt lat="47.20772" lon="5.55927">
        <ele>261</ele>
        <time>2018-02-19T10:20:28Z</time>
      </trkpt>
      <trkpt lat="47.20771" lon="5.55912">
        <ele>262</ele>
        <time>2018-02-19T10:20:38Z</time>
      </trkpt>
      <trkpt lat="47.20767" lon="5.55898">
        <ele>263</ele>
        <time>2018-02-19T10:20:47Z</time>
      </trkpt>
      <trkpt lat="47.20764" lon="5.55878">
        <ele>265</ele>
        <time>2018-02-19T10:20:59Z</time>
      </trkpt>
      <trkpt lat="47.20764" lon="5.55857">
        <ele>266</ele>
        <time>2018-02-19T10:21:11Z</time>
      </trkpt>
      <trkpt lat="47.20767" lon="5.55851">
        <ele>267</ele>
        <time>2018-02-19T10:21:16Z</time>
      </trkpt>
      <trkpt lat="47.20772" lon="5.55847">
        <ele>267</ele>
        <time>2018-02-19T10:21:22Z</time>
      </trkpt>
      <trkpt lat="47.20781" lon="5.55845">
        <ele>268</ele>
        <time>2018-02-19T10:21:34Z</time>
      </trkpt>
      <trkpt lat="47.20787" lon="5.55844">
        <ele>268</ele>
        <time>2018-02-19T10:21:39Z</time>
      </trkpt>
      <trkpt lat="47.20796" lon="5.55841">
        <ele>268</ele>
        <time>2018-02-19T10:21:47Z</time>
      </trkpt>
      <trkpt lat="47.20804" lon="5.55833">
        <ele>269</ele>
        <time>2018-02-19T10:21:55Z</time>
      </trkpt>
      <trkpt lat="47.20811" lon="5.55823">
        <ele>270</ele>
        <time>2018-02-19T10:22:03Z</time>
      </trkpt>
      <trkpt lat="47.20815" lon="5.55816">
        <ele>271</ele>
        <time>2018-02-19T10:22:08Z</time>
      </trkpt>
      <trkpt lat="47.20817" lon="5.5581">
        <ele>270</ele>
        <time>2018-02-19T10:22:13Z</time>
      </trkpt>
      <trkpt lat="47.2082" lon="5.55803">
        <ele>270</ele>
        <time>2018-02-19T10:22:17Z</time>
      </trkpt>
      <trkpt lat="47.20823" lon="5.55797">
        <ele>270</ele>
        <time>2018-02-19T10:22:21Z</time>
      </trkpt>
      <trkpt lat="47.20828" lon="5.55782">
        <ele>270</ele>
        <time>2018-02-19T10:22:29Z</time>
      </trkpt>
      <trkpt lat="47.20836" lon="5.55752">
        <ele>273</ele>
        <time>2018-02-19T10:22:45Z</time>
      </trkpt>
      <trkpt lat="47.20837" lon="5.55738">
        <ele>274</ele>
        <time>2018-02-19T10:22:53Z</time>
      </trkpt>
      <trkpt lat="47.20837" lon="5.5573">
        <ele>274</ele>
        <time>2018-02-19T10:22:57Z</time>
      </trkpt>
      <trkpt lat="47.20839" lon="5.55723">
        <ele>275</ele>
        <time>2018-02-19T10:23:01Z</time>
      </trkpt>
      <trkpt lat="47.20841" lon="5.55716">
        <ele>274</ele>
        <time>2018-02-19T10:23:05Z</time>
      </trkpt>
      <trkpt lat="47.20841" lon="5.55693">
        <ele>275</ele>
        <time>2018-02-19T10:23:17Z</time>
      </trkpt>
      <trkpt lat="47.20845" lon="5.55678">
        <ele>275</ele>
        <time>2018-02-19T10:23:25Z</time>
      </trkpt>
      <trkpt lat="47.20849" lon="5.55651">
        <ele>274</ele>
        <time>2018-02-19T10:23:41Z</time>
      </trkpt>
      <trkpt lat="47.20858" lon="5.55592">
        <ele>277</ele>
        <time>2018-02-19T10:24:13Z</time>
      </trkpt>
      <trkpt lat="47.2086" lon="5.55568">
        <ele>279</ele>
        <time>2018-02-19T10:24:25Z</time>
      </trkpt>
      <trkpt lat="47.20856" lon="5.55536">
        <ele>281</ele>
        <time>2018-02-19T10:24:42Z</time>
      </trkpt>
      <trkpt lat="47.20851" lon="5.55511">
        <ele>283</ele>
        <time>2018-02-19T10:24:57Z</time>
      </trkpt>
      <trkpt lat="47.20848" lon="5.55505">
        <ele>284</ele>
        <time>2018-02-19T10:25:02Z</time>
      </trkpt>
      <trkpt lat="47.20839" lon="5.55468">
        <ele>285</ele>
        <time>2018-02-19T10:25:22Z</time>
      </trkpt>
      <trkpt lat="47.20837" lon="5.55455">
        <ele>285</ele>
        <time>2018-02-19T10:25:29Z</time>
      </trkpt>
      <trkpt lat="47.20834" lon="5.5544">
        <ele>286</ele>
        <time>2018-02-19T10:25:37Z</time>
      </trkpt>
      <trkpt lat="47.20833" lon="5.55432">
        <ele>286</ele>
        <time>2018-02-19T10:25:41Z</time>
      </trkpt>
      <trkpt lat="47.20832" lon="5.55425">
        <ele>286</ele>
        <time>2018-02-19T10:25:45Z</time>
      </trkpt>
      <trkpt lat="47.20832" lon="5.55417">
        <ele>286</ele>
        <time>2018-02-19T10:25:49Z</time>
      </trkpt>
      <trkpt lat="47.2083" lon="5.5541">
        <ele>286</ele>
        <time>2018-02-19T10:25:53Z</time>
      </trkpt>
      <trkpt lat="47.20832" lon="5.55394">
        <ele>287</ele>
        <time>2018-02-19T10:26:02Z</time>
      </trkpt>
      <trkpt lat="47.20835" lon="5.5538">
        <ele>287</ele>
        <time>2018-02-19T10:26:11Z</time>
      </trkpt>
      <trkpt lat="47.20838" lon="5.55375">
        <ele>287</ele>
        <time>2018-02-19T10:26:15Z</time>
      </trkpt>
      <trkpt lat="47.20843" lon="5.55355">
        <ele>288</ele>
        <time>2018-02-19T10:26:27Z</time>
      </trkpt>
      <trkpt lat="47.20846" lon="5.55349">
        <ele>289</ele>
        <time>2018-02-19T10:26:31Z</time>
      </trkpt>
      <trkpt lat="47.20852" lon="5.5532">
        <ele>290</ele>
        <time>2018-02-19T10:26:47Z</time>
      </trkpt>
      <trkpt lat="47.20853" lon="5.55312">
        <ele>291</ele>
        <time>2018-02-19T10:26:51Z</time>
      </trkpt>
      <trkpt lat="47.20857" lon="5.55299">
        <ele>291</ele>
        <time>2018-02-19T10:26:59Z</time>
      </trkpt>
      <trkpt lat="47.20858" lon="5.55292">
        <ele>291</ele>
        <time>2018-02-19T10:27:03Z</time>
      </trkpt>
      <trkpt lat="47.2086" lon="5.55285">
        <ele>291</ele>
        <time>2018-02-19T10:27:06Z</time>
      </trkpt>
      <trkpt lat="47.20877" lon="5.55231">
        <ele>295</ele>
        <time>2018-02-19T10:27:38Z</time>
      </trkpt>
      <trkpt lat="47.20884" lon="5.55219">
        <ele>296</ele>
        <time>2018-02-19T10:27:47Z</time>
      </trkpt>
      <trkpt lat="47.20901" lon="5.55195">
        <ele>299</ele>
        <time>2018-02-19T10:28:07Z</time>
      </trkpt>
      <trkpt lat="47.20925" lon="5.55158">
        <ele>301</ele>
        <time>2018-02-19T10:28:42Z</time>
      </trkpt>
      <trkpt lat="47.20935" lon="5.55143">
        <ele>303</ele>
        <time>2018-02-19T10:28:57Z</time>
      </trkpt>
      <trkpt lat="47.20946" lon="5.55126">
        <ele>303</ele>
        <time>2018-02-19T10:29:15Z</time>
      </trkpt>
      <trkpt lat="47.20956" lon="5.5511">
        <ele>305</ele>
        <time>2018-02-19T10:29:30Z</time>
      </trkpt>
      <trkpt lat="47.20965" lon="5.55085">
        <ele>307</ele>
        <time>2018-02-19T10:29:48Z</time>
      </trkpt>
      <trkpt lat="47.20969" lon="5.55079">
        <ele>307</ele>
        <time>2018-02-19T10:29:53Z</time>
      </trkpt>
      <trkpt lat="47.20973" lon="5.55051">
        <ele>309</ele>
        <time>2018-02-19T10:30:16Z</time>
      </trkpt>
      <trkpt lat="47.20973" lon="5.55044">
        <ele>314</ele>
        <time>2018-02-19T10:30:28Z</time>
      </trkpt>
      <trkpt lat="47.20969" lon="5.55042">
        <ele>315</ele>
        <time>2018-02-19T10:30:34Z</time>
      </trkpt>
      <trkpt lat="47.20953" lon="5.55043">
        <ele>316</ele>
        <time>2018-02-19T10:30:49Z</time>
      </trkpt>
      <trkpt lat="47.20932" lon="5.55042">
        <ele>317</ele>
        <time>2018-02-19T10:31:05Z</time>
      </trkpt>
      <trkpt lat="47.20927" lon="5.55044">
        <ele>317</ele>
        <time>2018-02-19T10:31:09Z</time>
      </trkpt>
      <trkpt lat="47.20885" lon="5.55045">
        <ele>319</ele>
        <time>2018-02-19T10:31:42Z</time>
      </trkpt>
      <trkpt lat="47.20869" lon="5.55049">
        <ele>320</ele>
        <time>2018-02-19T10:31:55Z</time>
      </trkpt>
      <trkpt lat="47.20865" lon="5.5505">
        <ele>320</ele>
        <time>2018-02-19T10:32:00Z</time>
      </trkpt>
      <trkpt lat="47.2086" lon="5.55051">
        <ele>320</ele>
        <time>2018-02-19T10:32:05Z</time>
      </trkpt>
      <trkpt lat="47.20855" lon="5.55055">
        <ele>321</ele>
        <time>2018-02-19T10:32:09Z</time>
      </trkpt>
      <trkpt lat="47.20842" lon="5.55065">
        <ele>323</ele>
        <time>2018-02-19T10:32:20Z</time>
      </trkpt>
      <trkpt lat="47.20833" lon="5.55071">
        <ele>322</ele>
        <time>2018-02-19T10:32:29Z</time>
      </trkpt>
      <trkpt lat="47.20823" lon="5.55076">
        <ele>324</ele>
        <time>2018-02-19T10:32:37Z</time>
      </trkpt>
      <trkpt lat="47.20813" lon="5.5508">
        <ele>326</ele>
        <time>2018-02-19T10:32:46Z</time>
      </trkpt>
      <trkpt lat="47.20809" lon="5.55083">
        <ele>327</ele>
        <time>2018-02-19T10:32:51Z</time>
      </trkpt>
      <trkpt lat="47.20804" lon="5.55091">
        <ele>326</ele>
        <time>2018-02-19T10:33:03Z</time>
      </trkpt>
      <trkpt lat="47.20795" lon="5.55091">
        <ele>326</ele>
        <time>2018-02-19T10:33:12Z</time>
      </trkpt>
      <trkpt lat="47.2079" lon="5.55088">
        <ele>327</ele>
        <time>2018-02-19T10:33:18Z</time>
      </trkpt>
      <trkpt lat="47.20786" lon="5.55086">
        <ele>327</ele>
        <time>2018-02-19T10:33:22Z</time>
      </trkpt>
      <trkpt lat="47.20781" lon="5.55083">
        <ele>327</ele>
        <time>2018-02-19T10:33:27Z</time>
      </trkpt>
      <trkpt lat="47.20773" lon="5.55074">
        <ele>327</ele>
        <time>2018-02-19T10:33:35Z</time>
      </trkpt>
      <trkpt lat="47.20767" lon="5.55064">
        <ele>327</ele>
        <time>2018-02-19T10:33:42Z</time>
      </trkpt>
      <trkpt lat="47.20763" lon="5.55051">
        <ele>328</ele>
        <time>2018-02-19T10:33:51Z</time>
      </trkpt>
      <trkpt lat="47.20751" lon="5.55041">
        <ele>330</ele>
        <time>2018-02-19T10:34:06Z</time>
      </trkpt>
      <trkpt lat="47.20747" lon="5.55035">
        <ele>331</ele>
        <time>2018-02-19T10:34:11Z</time>
      </trkpt>
      <trkpt lat="47.20745" lon="5.55028">
        <ele>331</ele>
        <time>2018-02-19T10:34:16Z</time>
      </trkpt>
      <trkpt lat="47.20742" lon="5.55022">
        <ele>331</ele>
        <time>2018-02-19T10:34:22Z</time>
      </trkpt>
    </trkseg>
  </trk>
</gpx>